Lady Debora — V2QG7 — position and weather

sailwx.info

Track history (hours):
 
Tides and Currents Weather Stations Pressure Air Temp Water Temp Dewpoint Dewpoint Depression Visibility Wind Speed Wind Dir Waves Ship Positions

Lady Debora

Last reported at 2017-Jan-19 14:10 UTC. Time now 2017-Jan-22 18:23 UTC.
Position N 50°25' W 005°51'.

Length 107 m; draft 6.9 m.

Type: Cargo ship. MMSI: 304010760.

Date/timePositionNaut miles runAvg speedWind from/ knotsBaromVisibWave heightAir tempDewpointWater temp
2017-Jan-19 14:10N 50°25' W 005°51'710.8
2017-Jan-19 13:33N 50°30' W 005°44'1110.8
2017-Jan-19 12:33N 50°37' W 005°32'1010.5
2017-Jan-19 11:33N 50°44' W 005°19'10 9.8
2017-Jan-19 10:33N 50°50' W 005°06'9 9.3
2017-Jan-19 09:34N 50°56' W 004°55'9 8.6
2017-Jan-19 08:34N 51°01' W 004°44'8 8.0
2017-Jan-19 07:34N 51°06' W 004°34'8 8.1
2017-Jan-19 06:33N 51°11' W 004°24'9 8.6
2017-Jan-19 05:33N 51°16' W 004°13'9 9.2
2017-Jan-19 04:34N 51°17' W 003°58'2411.8
2017-Jan-19 02:33N 51°21' W 003°21'1212.5
2017-Jan-19 01:33N 51°25' W 003°02'1211.9
2017-Jan-19 00:33N 51°30' W 002°45'1 1.3
2017-Jan-18 23:33N 51°30' W 002°43'0 0.0
2017-Jan-18 22:33N 51°30' W 002°43'0 0.0
2017-Jan-18 21:33N 51°30' W 002°43'0 0.0
2017-Jan-18 20:33N 51°30' W 002°43'0 0.0
2017-Jan-18 19:33N 51°30' W 002°43'0 0.0
2017-Jan-18 18:33N 51°30' W 002°43'0 0.0
2017-Jan-18 17:33N 51°30' W 002°43'0 0.0
2017-Jan-18 16:33N 51°30' W 002°43'0 0.0
2017-Jan-18 15:33N 51°30' W 002°43'0 0.0
2017-Jan-18 14:33N 51°30' W 002°43'0 0.0
2017-Jan-18 13:33N 51°30' W 002°43'0 0.0
2017-Jan-18 12:33N 51°30' W 002°43'0 0.0
2017-Jan-18 11:33N 51°30' W 002°43'0 0.0
2017-Jan-18 10:33N 51°30' W 002°43'0 0.0
2017-Jan-18 09:33N 51°30' W 002°43'0 0.0
2017-Jan-18 08:33N 51°30' W 002°43'0 0.0
2017-Jan-18 07:33N 51°30' W 002°43'0 0.0
2017-Jan-18 06:33N 51°30' W 002°43'0 0.0
2017-Jan-18 05:33N 51°30' W 002°43'0 0.0
2017-Jan-18 04:33N 51°30' W 002°43'0 0.0
2017-Jan-18 03:33N 51°30' W 002°43'0 0.0
2017-Jan-18 02:33N 51°30' W 002°43'0 0.0
2017-Jan-18 01:33N 51°30' W 002°43'0 0.0
2017-Jan-18 00:33N 51°30' W 002°43'0 0.0
2017-Jan-17 23:33N 51°30' W 002°43'0 0.0
2017-Jan-17 22:33N 51°30' W 002°43'0 0.0
2017-Jan-17 21:33N 51°30' W 002°43'0 0.1
2017-Jan-17 20:33N 51°30' W 002°43'0 0.0
2017-Jan-17 19:33N 51°30' W 002°43'0 0.0
2017-Jan-17 18:33N 51°30' W 002°43'0 0.0
2017-Jan-17 17:33N 51°30' W 002°43'0 0.0
2017-Jan-17 16:33N 51°30' W 002°43'0 0.0
2017-Jan-17 15:33N 51°30' W 002°43'0 0.0
2017-Jan-17 14:33N 51°30' W 002°43'0 0.0
2017-Jan-17 13:33N 51°30' W 002°43'0 0.0
2017-Jan-17 12:33N 51°30' W 002°43'0 0.0
2017-Jan-17 11:33N 51°30' W 002°43'0 0.0
2017-Jan-17 10:33N 51°30' W 002°43'0 0.4
2017-Jan-17 09:34N 51°30' W 002°44'8 7.9
2017-Jan-17 08:34N 51°27' W 002°56'1413.0
2017-Jan-17 07:30N 51°21' W 003°15'19 0.9
2017-Jan-16 10:13N 51°18' W 003°46'710.4
2017-Jan-16 09:33N 51°18' W 003°57'1111.4
2017-Jan-16 08:33N 51°15' W 004°15'1211.9
2017-Jan-16 07:33N 51°08' W 004°30'1212.5
2017-Jan-16 06:33N 51°01' W 004°46'1211.6
2017-Jan-16 05:33N 50°53' W 005°00'1111.2
2017-Jan-16 04:33N 50°46' W 005°13'1110.7
2017-Jan-16 03:33N 50°39' W 005°27'1010.1
2017-Jan-16 02:33N 50°32' W 005°37'9 9.5
2017-Jan-16 01:33N 50°24' W 005°47'9 8.6
2017-Jan-16 00:32N 50°16' W 005°52'  
2017-Jan-12 02:33N 39°13' W 009°43'8 8.3
2017-Jan-12 01:33N 39°05' W 009°43'8 8.0
2017-Jan-12 00:33N 38°57' W 009°42'8 7.8
2017-Jan-11 23:33N 38°49' W 009°42'8 7.7
2017-Jan-11 22:33N 38°41' W 009°41'7 6.6
2017-Jan-11 21:33N 38°37' W 009°35'1010.1
2017-Jan-11 20:33N 38°38' W 009°22'1211.7
2017-Jan-11 19:33N 38°42' W 009°08'3 2.0
2017-Jan-11 18:15N 38°44' W 009°06'0 0.0
2017-Jan-11 17:33N 38°44' W 009°06'0 0.0
2017-Jan-11 16:27N 38°44' W 009°06'0 0.0
2017-Jan-11 15:33N 38°44' W 009°06'0 0.0
2017-Jan-11 14:33N 38°44' W 009°06'0 0.0
2017-Jan-11 13:33N 38°44' W 009°06'0 0.0
2017-Jan-11 12:30N 38°44' W 009°06'0 0.0
2017-Jan-11 11:30N 38°44' W 009°06'0 0.0
2017-Jan-11 10:33N 38°44' W 009°06'0 0.0
2017-Jan-11 09:30N 38°44' W 009°06'0 0.0
2017-Jan-11 08:33N 38°44' W 009°06'0 0.0
2017-Jan-11 07:33N 38°44' W 009°06'0 0.1
2017-Jan-11 06:33N 38°44' W 009°06'6 5.9
2017-Jan-11 05:32N 38°41' W 009°13'6 6.1
2017-Jan-11 04:33N 38°39' W 009°20'3 2.8
2017-Jan-11 03:33N 38°40' W 009°23'0 0.0
2017-Jan-11 01:05N 38°40' W 009°23'0 0.0
2017-Jan-11 00:32N 38°40' W 009°23'0 0.0
2017-Jan-10 23:29N 38°40' W 009°23'0 0.0
2017-Jan-10 22:32N 38°40' W 009°23'0 0.0
2017-Jan-10 21:32N 38°40' W 009°23'0 0.0
2017-Jan-10 20:32N 38°40' W 009°23'0 0.0
2017-Jan-10 17:05N 38°40' W 009°23'0 0.0
2017-Jan-10 16:29N 38°40' W 009°23'0 0.0
2017-Jan-10 14:26N 38°40' W 009°23'0 0.0
2017-Jan-10 13:32N 38°40' W 009°23'0 0.0
2017-Jan-10 12:32N 38°40' W 009°23'0 0.0
2017-Jan-10 11:32N 38°40' W 009°23'0 0.0
2017-Jan-10 10:32N 38°40' W 009°23'0 0.0
2017-Jan-10 09:32N 38°40' W 009°23'0 0.0
2017-Jan-10 08:32N 38°40' W 009°23'0 0.0
2017-Jan-10 07:29N 38°40' W 009°23'0 0.0
2017-Jan-10 06:32N 38°40' W 009°23'0 0.0
2017-Jan-10 05:23N 38°40' W 009°23'0 0.0
2017-Jan-10 04:26N 38°40' W 009°23'0 0.0
2017-Jan-10 03:23N 38°40' W 009°23'0 0.1
2017-Jan-10 02:08N 38°40' W 009°23'0 0.0
2017-Jan-10 01:32N 38°40' W 009°23'0 0.0
2017-Jan-10 00:32N 38°40' W 009°23'0 0.0
2017-Jan-09 23:32N 38°40' W 009°23'0 0.0
2017-Jan-09 22:32N 38°40' W 009°23'0 0.0
2017-Jan-09 21:32N 38°40' W 009°23'0 0.0
2017-Jan-09 20:17N 38°40' W 009°23'0 0.0
2017-Jan-09 19:23N 38°40' W 009°23'0 0.0
2017-Jan-09 18:08N 38°40' W 009°23'0 0.1
2017-Jan-09 17:26N 38°40' W 009°23'0 0.0
2017-Jan-09 16:29N 38°40' W 009°23'0 0.0
2017-Jan-09 15:32N 38°40' W 009°23'0 0.1
2017-Jan-09 14:32N 38°40' W 009°23'  
Track history (hours):
 
Tides and Currents Weather Stations Pressure Air Temp Water Temp Dewpoint Dewpoint Depression Visibility Wind Speed Wind Dir Waves Ship Positions

Lady Debora

Last reported at 2017-Jan-19 14:10 UTC. Time now 2017-Jan-22 18:23 UTC.
Position N 50°25' W 005°51'.

Length 107 m; draft 6.9 m.

Type: Cargo ship. MMSI: 304010760.

Date/timePositionNaut miles runAvg speedWind from/ knotsBaromVisibWave heightAir tempDewpointWater temp
2017-Jan-19 14:10N 50°25' W 005°51'710.8
2017-Jan-19 13:33N 50°30' W 005°44'1110.8
2017-Jan-19 12:33N 50°37' W 005°32'1010.5
2017-Jan-19 11:33N 50°44' W 005°19'10 9.8
2017-Jan-19 10:33N 50°50' W 005°06'9 9.3
2017-Jan-19 09:34N 50°56' W 004°55'9 8.6
2017-Jan-19 08:34N 51°01' W 004°44'8 8.0
2017-Jan-19 07:34N 51°06' W 004°34'8 8.1
2017-Jan-19 06:33N 51°11' W 004°24'9 8.6
2017-Jan-19 05:33N 51°16' W 004°13'9 9.2
2017-Jan-19 04:34N 51°17' W 003°58'2411.8
2017-Jan-19 02:33N 51°21' W 003°21'1212.5
2017-Jan-19 01:33N 51°25' W 003°02'1211.9
2017-Jan-19 00:33N 51°30' W 002°45'1 1.3
2017-Jan-18 23:33N 51°30' W 002°43'0 0.0
2017-Jan-18 22:33N 51°30' W 002°43'0 0.0
2017-Jan-18 21:33N 51°30' W 002°43'0 0.0
2017-Jan-18 20:33N 51°30' W 002°43'0 0.0
2017-Jan-18 19:33N 51°30' W 002°43'0 0.0
2017-Jan-18 18:33N 51°30' W 002°43'0 0.0
2017-Jan-18 17:33N 51°30' W 002°43'0 0.0
2017-Jan-18 16:33N 51°30' W 002°43'0 0.0
2017-Jan-18 15:33N 51°30' W 002°43'0 0.0
2017-Jan-18 14:33N 51°30' W 002°43'0 0.0
2017-Jan-18 13:33N 51°30' W 002°43'0 0.0
2017-Jan-18 12:33N 51°30' W 002°43'0 0.0
2017-Jan-18 11:33N 51°30' W 002°43'0 0.0
2017-Jan-18 10:33N 51°30' W 002°43'0 0.0
2017-Jan-18 09:33N 51°30' W 002°43'0 0.0
2017-Jan-18 08:33N 51°30' W 002°43'0 0.0
2017-Jan-18 07:33N 51°30' W 002°43'0 0.0
2017-Jan-18 06:33N 51°30' W 002°43'0 0.0
2017-Jan-18 05:33N 51°30' W 002°43'0 0.0
2017-Jan-18 04:33N 51°30' W 002°43'0 0.0
2017-Jan-18 03:33N 51°30' W 002°43'0 0.0
2017-Jan-18 02:33N 51°30' W 002°43'0 0.0
2017-Jan-18 01:33N 51°30' W 002°43'0 0.0
2017-Jan-18 00:33N 51°30' W 002°43'0 0.0
2017-Jan-17 23:33N 51°30' W 002°43'0 0.0
2017-Jan-17 22:33N 51°30' W 002°43'0 0.0
2017-Jan-17 21:33N 51°30' W 002°43'0 0.1
2017-Jan-17 20:33N 51°30' W 002°43'0 0.0
2017-Jan-17 19:33N 51°30' W 002°43'0 0.0
2017-Jan-17 18:33N 51°30' W 002°43'0 0.0
2017-Jan-17 17:33N 51°30' W 002°43'0 0.0
2017-Jan-17 16:33N 51°30' W 002°43'0 0.0
2017-Jan-17 15:33N 51°30' W 002°43'0 0.0
2017-Jan-17 14:33N 51°30' W 002°43'0 0.0
2017-Jan-17 13:33N 51°30' W 002°43'0 0.0
2017-Jan-17 12:33N 51°30' W 002°43'0 0.0
2017-Jan-17 11:33N 51°30' W 002°43'0 0.0
2017-Jan-17 10:33N 51°30' W 002°43'0 0.4
2017-Jan-17 09:34N 51°30' W 002°44'8 7.9
2017-Jan-17 08:34N 51°27' W 002°56'1413.0
2017-Jan-17 07:30N 51°21' W 003°15'19 0.9
2017-Jan-16 10:13N 51°18' W 003°46'710.4
2017-Jan-16 09:33N 51°18' W 003°57'1111.4
2017-Jan-16 08:33N 51°15' W 004°15'1211.9
2017-Jan-16 07:33N 51°08' W 004°30'1212.5
2017-Jan-16 06:33N 51°01' W 004°46'1211.6
2017-Jan-16 05:33N 50°53' W 005°00'1111.2
2017-Jan-16 04:33N 50°46' W 005°13'1110.7
2017-Jan-16 03:33N 50°39' W 005°27'1010.1
2017-Jan-16 02:33N 50°32' W 005°37'9 9.5
2017-Jan-16 01:33N 50°24' W 005°47'9 8.6
2017-Jan-16 00:32N 50°16' W 005°52'  
2017-Jan-12 02:33N 39°13' W 009°43'8 8.3
2017-Jan-12 01:33N 39°05' W 009°43'8 8.0
2017-Jan-12 00:33N 38°57' W 009°42'8 7.8
2017-Jan-11 23:33N 38°49' W 009°42'8 7.7
2017-Jan-11 22:33N 38°41' W 009°41'7 6.6
2017-Jan-11 21:33N 38°37' W 009°35'1010.1
2017-Jan-11 20:33N 38°38' W 009°22'1211.7
2017-Jan-11 19:33N 38°42' W 009°08'3 2.0
2017-Jan-11 18:15N 38°44' W 009°06'0 0.0
2017-Jan-11 17:33N 38°44' W 009°06'0 0.0
2017-Jan-11 16:27N 38°44' W 009°06'0 0.0
2017-Jan-11 15:33N 38°44' W 009°06'0 0.0
2017-Jan-11 14:33N 38°44' W 009°06'0 0.0
2017-Jan-11 13:33N 38°44' W 009°06'0 0.0
2017-Jan-11 12:30N 38°44' W 009°06'0 0.0
2017-Jan-11 11:30N 38°44' W 009°06'0 0.0
2017-Jan-11 10:33N 38°44' W 009°06'0 0.0
2017-Jan-11 09:30N 38°44' W 009°06'0 0.0
2017-Jan-11 08:33N 38°44' W 009°06'0 0.0
2017-Jan-11 07:33N 38°44' W 009°06'0 0.1
2017-Jan-11 06:33N 38°44' W 009°06'6 5.9
2017-Jan-11 05:32N 38°41' W 009°13'6 6.1
2017-Jan-11 04:33N 38°39' W 009°20'3 2.8
2017-Jan-11 03:33N 38°40' W 009°23'0 0.0
2017-Jan-11 01:05N 38°40' W 009°23'0 0.0
2017-Jan-11 00:32N 38°40' W 009°23'0 0.0
2017-Jan-10 23:29N 38°40' W 009°23'0 0.0
2017-Jan-10 22:32N 38°40' W 009°23'0 0.0
2017-Jan-10 21:32N 38°40' W 009°23'0 0.0
2017-Jan-10 20:32N 38°40' W 009°23'0 0.0
2017-Jan-10 17:05N 38°40' W 009°23'0 0.0
2017-Jan-10 16:29N 38°40' W 009°23'0 0.0
2017-Jan-10 14:26N 38°40' W 009°23'0 0.0
2017-Jan-10 13:32N 38°40' W 009°23'0 0.0
2017-Jan-10 12:32N 38°40' W 009°23'0 0.0
2017-Jan-10 11:32N 38°40' W 009°23'0 0.0
2017-Jan-10 10:32N 38°40' W 009°23'0 0.0
2017-Jan-10 09:32N 38°40' W 009°23'0 0.0
2017-Jan-10 08:32N 38°40' W 009°23'0 0.0
2017-Jan-10 07:29N 38°40' W 009°23'0 0.0
2017-Jan-10 06:32N 38°40' W 009°23'0 0.0
2017-Jan-10 05:23N 38°40' W 009°23'0 0.0
2017-Jan-10 04:26N 38°40' W 009°23'0 0.0
2017-Jan-10 03:23N 38°40' W 009°23'0 0.1
2017-Jan-10 02:08N 38°40' W 009°23'0 0.0
2017-Jan-10 01:32N 38°40' W 009°23'0 0.0
2017-Jan-10 00:32N 38°40' W 009°23'0 0.0
2017-Jan-09 23:32N 38°40' W 009°23'0 0.0
2017-Jan-09 22:32N 38°40' W 009°23'0 0.0
2017-Jan-09 21:32N 38°40' W 009°23'0 0.0
2017-Jan-09 20:17N 38°40' W 009°23'0 0.0
2017-Jan-09 19:23N 38°40' W 009°23'0 0.0
2017-Jan-09 18:08N 38°40' W 009°23'0 0.1
2017-Jan-09 17:26N 38°40' W 009°23'0 0.0
2017-Jan-09 16:29N 38°40' W 009°23'0 0.0
2017-Jan-09 15:32N 38°40' W 009°23'0 0.1
2017-Jan-09 14:32N 38°40' W 009°23'  

Dump ship's entire track history